sensor_id;sensor_type;location;lat;lon;timestamp;P1;durP1;ratioP1;P2;durP2;ratioP2
8831;SDS011;4452;50.756;4.472;2023-08-17T00:02:15;5.30;;;4.80;;
8831;SDS011;4452;50.756;4.472;2023-08-17T00:04:40;7.68;;;5.25;;
8831;SDS011;4452;50.756;4.472;2023-08-17T00:07:06;12.25;;;5.13;;
8831;SDS011;4452;50.756;4.472;2023-08-17T00:09:32;6.40;;;5.18;;
8831;SDS011;4452;50.756;4.472;2023-08-17T00:11:58;9.90;;;4.70;;
8831;SDS011;4452;50.756;4.472;2023-08-17T00:14:24;8.27;;;5.10;;
8831;SDS011;4452;50.756;4.472;2023-08-17T00:16:50;8.65;;;4.90;;
8831;SDS011;4452;50.756;4.472;2023-08-17T00:19:16;5.30;;;4.80;;
8831;SDS011;4452;50.756;4.472;2023-08-17T00:21:43;5.30;;;4.80;;
8831;SDS011;4452;50.756;4.472;2023-08-17T00:24:10;4.95;;;4.55;;
8831;SDS011;4452;50.756;4.472;2023-08-17T00:26:36;5.45;;;4.95;;
8831;SDS011;4452;50.756;4.472;2023-08-17T00:29:03;8.80;;;5.00;;
8831;SDS011;4452;50.756;4.472;2023-08-17T00:31:29;5.85;;;4.55;;
8831;SDS011;4452;50.756;4.472;2023-08-17T00:33:55;7.00;;;4.57;;
8831;SDS011;4452;50.756;4.472;2023-08-17T00:36:20;5.32;;;4.38;;
8831;SDS011;4452;50.756;4.472;2023-08-17T00:38:46;6.80;;;4.38;;
8831;SDS011;4452;50.756;4.472;2023-08-17T00:41:12;7.32;;;4.53;;
8831;SDS011;4452;50.756;4.472;2023-08-17T00:43:38;4.85;;;4.32;;
8831;SDS011;4452;50.756;4.472;2023-08-17T00:46:03;7.88;;;4.40;;
8831;SDS011;4452;50.756;4.472;2023-08-17T00:48:30;8.57;;;5.00;;
8831;SDS011;4452;50.756;4.472;2023-08-17T00:50:56;5.00;;;4.50;;
8831;SDS011;4452;50.756;4.472;2023-08-17T00:53:25;6.50;;;4.50;;
8831;SDS011;4452;50.756;4.472;2023-08-17T00:55:55;12.50;;;4.70;;
8831;SDS011;4452;50.756;4.472;2023-08-17T00:58:21;5.07;;;4.55;;
8831;SDS011;4452;50.756;4.472;2023-08-17T01:00:47;6.93;;;4.70;;
8831;SDS011;4452;50.756;4.472;2023-08-17T01:03:13;6.35;;;4.47;;
8831;SDS011;4452;50.756;4.472;2023-08-17T01:05:40;10.25;;;4.70;;
8831;SDS011;4452;50.756;4.472;2023-08-17T01:08:06;5.57;;;4.53;;
8831;SDS011;4452;50.756;4.472;2023-08-17T01:10:44;5.25;;;4.63;;
8831;SDS011;4452;50.756;4.472;2023-08-17T01:13:22;4.60;;;4.20;;
8831;SDS011;4452;50.756;4.472;2023-08-17T01:15:56;4.85;;;4.20;;
8831;SDS011;4452;50.756;4.472;2023-08-17T01:18:35;9.90;;;4.53;;
8831;SDS011;4452;50.756;4.472;2023-08-17T01:21:02;9.05;;;4.65;;
8831;SDS011;4452;50.756;4.472;2023-08-17T01:23:31;6.55;;;4.70;;
8831;SDS011;4452;50.756;4.472;2023-08-17T01:25:57;4.45;;;3.90;;
8831;SDS011;4452;50.756;4.472;2023-08-17T01:28:23;11.98;;;4.30;;
8831;SDS011;4452;50.756;4.472;2023-08-17T01:31:08;5.95;;;4.35;;
8831;SDS011;4452;50.756;4.472;2023-08-17T01:33:40;5.88;;;4.40;;
8831;SDS011;4452;50.756;4.472;2023-08-17T01:38:56;8.48;;;4.32;;
8831;SDS011;4452;50.756;4.472;2023-08-17T01:41:22;4.90;;;4.38;;
8831;SDS011;4452;50.756;4.472;2023-08-17T01:43:48;5.65;;;4.45;;
8831;SDS011;4452;50.756;4.472;2023-08-17T01:46:16;6.10;;;4.55;;
8831;SDS011;4452;50.756;4.472;2023-08-17T01:48:43;5.28;;;4.50;;
8831;SDS011;4452;50.756;4.472;2023-08-17T01:51:10;7.13;;;4.70;;
8831;SDS011;4452;50.756;4.472;2023-08-17T01:53:36;10.70;;;4.60;;
8831;SDS011;4452;50.756;4.472;2023-08-17T01:56:03;6.72;;;4.63;;
8831;SDS011;4452;50.756;4.472;2023-08-17T01:58:29;4.70;;;4.30;;
8831;SDS011;4452;50.756;4.472;2023-08-17T02:00:55;4.57;;;4.18;;
8831;SDS011;4452;50.756;4.472;2023-08-17T02:03:21;5.95;;;4.78;;
8831;SDS011;4452;50.756;4.472;2023-08-17T02:05:46;6.18;;;4.72;;
8831;SDS011;4452;50.756;4.472;2023-08-17T02:08:12;5.90;;;4.90;;
8831;SDS011;4452;50.756;4.472;2023-08-17T02:10:38;5.15;;;4.75;;
8831;SDS011;4452;50.756;4.472;2023-08-17T02:13:04;8.00;;;4.65;;
8831;SDS011;4452;50.756;4.472;2023-08-17T02:15:29;5.30;;;4.80;;
8831;SDS011;4452;50.756;4.472;2023-08-17T02:18:00;6.22;;;5.18;;
8831;SDS011;4452;50.756;4.472;2023-08-17T02:20:26;5.70;;;5.10;;
8831;SDS011;4452;50.756;4.472;2023-08-17T02:22:52;5.78;;;5.28;;
8831;SDS011;4452;50.756;4.472;2023-08-17T02:25:18;6.82;;;5.10;;
8831;SDS011;4452;50.756;4.472;2023-08-17T02:27:43;5.90;;;5.03;;
8831;SDS011;4452;50.756;4.472;2023-08-17T02:30:09;7.05;;;5.07;;
8831;SDS011;4452;50.756;4.472;2023-08-17T02:32:35;5.97;;;5.35;;
8831;SDS011;4452;50.756;4.472;2023-08-17T02:35:01;5.60;;;5.05;;
8831;SDS011;4452;50.756;4.472;2023-08-17T02:37:27;5.28;;;4.68;;
8831;SDS011;4452;50.756;4.472;2023-08-17T02:39:53;5.60;;;4.97;;
8831;SDS011;4452;50.756;4.472;2023-08-17T02:42:18;5.85;;;5.25;;
8831;SDS011;4452;50.756;4.472;2023-08-17T02:44:44;5.97;;;5.25;;
8831;SDS011;4452;50.756;4.472;2023-08-17T02:47:10;10.70;;;5.18;;
8831;SDS011;4452;50.756;4.472;2023-08-17T02:49:36;6.03;;;5.40;;
8831;SDS011;4452;50.756;4.472;2023-08-17T02:52:02;5.90;;;5.28;;
8831;SDS011;4452;50.756;4.472;2023-08-17T02:54:28;6.63;;;4.97;;
8831;SDS011;4452;50.756;4.472;2023-08-17T02:56:53;7.82;;;5.40;;
8831;SDS011;4452;50.756;4.472;2023-08-17T02:59:19;5.85;;;4.88;;
8831;SDS011;4452;50.756;4.472;2023-08-17T03:01:45;6.05;;;5.38;;
8831;SDS011;4452;50.756;4.472;2023-08-17T03:04:11;7.75;;;5.13;;
8831;SDS011;4452;50.756;4.472;2023-08-17T03:06:36;7.68;;;5.07;;
8831;SDS011;4452;50.756;4.472;2023-08-17T03:09:02;8.80;;;5.30;;
8831;SDS011;4452;50.756;4.472;2023-08-17T03:11:28;11.75;;;5.47;;
8831;SDS011;4452;50.756;4.472;2023-08-17T03:13:54;6.68;;;5.68;;
8831;SDS011;4452;50.756;4.472;2023-08-17T03:16:25;6.93;;;5.30;;
8831;SDS011;4452;50.756;4.472;2023-08-17T03:18:52;8.07;;;5.22;;
8831;SDS011;4452;50.756;4.472;2023-08-17T03:21:17;9.73;;;5.60;;
8831;SDS011;4452;50.756;4.472;2023-08-17T03:23:44;6.10;;;5.50;;
8831;SDS011;4452;50.756;4.472;2023-08-17T03:26:10;12.57;;;5.60;;
8831;SDS011;4452;50.756;4.472;2023-08-17T03:28:36;5.85;;;5.30;;
8831;SDS011;4452;50.756;4.472;2023-08-17T03:31:02;7.93;;;5.70;;
8831;SDS011;4452;50.756;4.472;2023-08-17T03:33:28;6.85;;;5.45;;
8831;SDS011;4452;50.756;4.472;2023-08-17T03:35:54;6.57;;;5.50;;
8831;SDS011;4452;50.756;4.472;2023-08-17T03:38:20;5.65;;;5.13;;
8831;SDS011;4452;50.756;4.472;2023-08-17T03:40:49;14.13;;;5.88;;
8831;SDS011;4452;50.756;4.472;2023-08-17T03:43:15;9.35;;;5.43;;
8831;SDS011;4452;50.756;4.472;2023-08-17T03:45:41;8.57;;;5.70;;
8831;SDS011;4452;50.756;4.472;2023-08-17T03:48:07;6.82;;;5.70;;
8831;SDS011;4452;50.756;4.472;2023-08-17T03:50:33;10.40;;;5.53;;
8831;SDS011;4452;50.756;4.472;2023-08-17T03:52:59;7.05;;;6.07;;
8831;SDS011;4452;50.756;4.472;2023-08-17T03:55:25;13.15;;;5.75;;
8831;SDS011;4452;50.756;4.472;2023-08-17T03:57:51;7.93;;;5.85;;
8831;SDS011;4452;50.756;4.472;2023-08-17T04:00:16;5.88;;;5.22;;
8831;SDS011;4452;50.756;4.472;2023-08-17T04:02:42;12.48;;;5.72;;
8831;SDS011;4452;50.756;4.472;2023-08-17T04:05:08;6.03;;;5.43;;
8831;SDS011;4452;50.756;4.472;2023-08-17T04:07:34;6.45;;;5.18;;
8831;SDS011;4452;50.756;4.472;2023-08-17T04:10:00;6.07;;;5.47;;
8831;SDS011;4452;50.756;4.472;2023-08-17T04:12:26;6.28;;;5.50;;
8831;SDS011;4452;50.756;4.472;2023-08-17T04:14:52;7.72;;;5.30;;
8831;SDS011;4452;50.756;4.472;2023-08-17T04:17:18;11.23;;;6.00;;
8831;SDS011;4452;50.756;4.472;2023-08-17T04:19:43;8.95;;;5.97;;
8831;SDS011;4452;50.756;4.472;2023-08-17T04:22:09;11.52;;;5.90;;
8831;SDS011;4452;50.756;4.472;2023-08-17T04:24:35;9.65;;;5.85;;
8831;SDS011;4452;50.756;4.472;2023-08-17T04:27:01;6.18;;;5.65;;
8831;SDS011;4452;50.756;4.472;2023-08-17T04:29:26;6.90;;;5.47;;
8831;SDS011;4452;50.756;4.472;2023-08-17T04:31:52;6.60;;;5.72;;
8831;SDS011;4452;50.756;4.472;2023-08-17T04:34:18;7.72;;;5.45;;
8831;SDS011;4452;50.756;4.472;2023-08-17T04:36:44;9.02;;;6.32;;
8831;SDS011;4452;50.756;4.472;2023-08-17T04:39:10;11.25;;;5.95;;
8831;SDS011;4452;50.756;4.472;2023-08-17T04:41:36;7.43;;;5.75;;
8831;SDS011;4452;50.756;4.472;2023-08-17T04:44:03;10.43;;;6.10;;
8831;SDS011;4452;50.756;4.472;2023-08-17T04:46:29;9.80;;;5.72;;
8831;SDS011;4452;50.756;4.472;2023-08-17T04:48:54;8.77;;;5.57;;
8831;SDS011;4452;50.756;4.472;2023-08-17T04:51:20;6.47;;;5.88;;
8831;SDS011;4452;50.756;4.472;2023-08-17T04:53:46;15.73;;;6.28;;
8831;SDS011;4452;50.756;4.472;2023-08-17T04:56:12;6.50;;;5.13;;
8831;SDS011;4452;50.756;4.472;2023-08-17T04:58:37;8.48;;;5.35;;
8831;SDS011;4452;50.756;4.472;2023-08-17T05:01:03;7.88;;;5.45;;
8831;SDS011;4452;50.756;4.472;2023-08-17T05:03:29;10.38;;;5.57;;
8831;SDS011;4452;50.756;4.472;2023-08-17T05:05:56;10.05;;;5.80;;
8831;SDS011;4452;50.756;4.472;2023-08-17T05:08:22;12.02;;;5.85;;
8831;SDS011;4452;50.756;4.472;2023-08-17T05:10:48;9.65;;;5.45;;
8831;SDS011;4452;50.756;4.472;2023-08-17T05:13:14;7.40;;;5.43;;
8831;SDS011;4452;50.756;4.472;2023-08-17T05:15:40;8.45;;;5.32;;
8831;SDS011;4452;50.756;4.472;2023-08-17T05:18:05;9.80;;;5.40;;
8831;SDS011;4452;50.756;4.472;2023-08-17T05:20:32;6.10;;;5.18;;
8831;SDS011;4452;50.756;4.472;2023-08-17T05:22:58;10.68;;;5.70;;
8831;SDS011;4452;50.756;4.472;2023-08-17T05:25:24;8.82;;;5.20;;
8831;SDS011;4452;50.756;4.472;2023-08-17T05:27:51;9.43;;;4.97;;
8831;SDS011;4452;50.756;4.472;2023-08-17T05:30:17;10.88;;;5.03;;
8831;SDS011;4452;50.756;4.472;2023-08-17T05:32:43;12.25;;;5.35;;
8831;SDS011;4452;50.756;4.472;2023-08-17T05:35:09;8.82;;;5.38;;
8831;SDS011;4452;50.756;4.472;2023-08-17T05:37:34;8.85;;;4.90;;
8831;SDS011;4452;50.756;4.472;2023-08-17T05:40:00;7.82;;;5.03;;
8831;SDS011;4452;50.756;4.472;2023-08-17T05:42:29;7.95;;;4.97;;
8831;SDS011;4452;50.756;4.472;2023-08-17T05:44:57;5.75;;;5.10;;
8831;SDS011;4452;50.756;4.472;2023-08-17T05:47:23;8.68;;;5.32;;
8831;SDS011;4452;50.756;4.472;2023-08-17T05:49:48;7.18;;;4.93;;
8831;SDS011;4452;50.756;4.472;2023-08-17T05:52:16;6.15;;;4.88;;
8831;SDS011;4452;50.756;4.472;2023-08-17T05:54:42;9.73;;;4.75;;
8831;SDS011;4452;50.756;4.472;2023-08-17T05:57:08;6.93;;;5.03;;
8831;SDS011;4452;50.756;4.472;2023-08-17T05:59:33;9.85;;;5.05;;
8831;SDS011;4452;50.756;4.472;2023-08-17T06:01:59;9.75;;;5.10;;
8831;SDS011;4452;50.756;4.472;2023-08-17T06:04:25;7.30;;;4.72;;
8831;SDS011;4452;50.756;4.472;2023-08-17T06:06:50;7.10;;;4.82;;
8831;SDS011;4452;50.756;4.472;2023-08-17T06:09:16;11.85;;;5.00;;
8831;SDS011;4452;50.756;4.472;2023-08-17T06:11:42;8.57;;;4.95;;
8831;SDS011;4452;50.756;4.472;2023-08-17T06:14:07;11.07;;;5.63;;
8831;SDS011;4452;50.756;4.472;2023-08-17T06:16:33;6.05;;;5.07;;
8831;SDS011;4452;50.756;4.472;2023-08-17T06:18:59;6.15;;;4.90;;
8831;SDS011;4452;50.756;4.472;2023-08-17T06:21:25;8.00;;;5.30;;
8831;SDS011;4452;50.756;4.472;2023-08-17T06:23:50;7.60;;;5.15;;
8831;SDS011;4452;50.756;4.472;2023-08-17T06:26:16;6.05;;;4.78;;
8831;SDS011;4452;50.756;4.472;2023-08-17T06:28:42;5.93;;;5.20;;
8831;SDS011;4452;50.756;4.472;2023-08-17T06:31:07;14.32;;;5.30;;
8831;SDS011;4452;50.756;4.472;2023-08-17T06:33:33;10.60;;;5.50;;
8831;SDS011;4452;50.756;4.472;2023-08-17T06:35:59;10.45;;;5.15;;
8831;SDS011;4452;50.756;4.472;2023-08-17T06:38:24;11.20;;;5.03;;
8831;SDS011;4452;50.756;4.472;2023-08-17T06:40:51;16.33;;;6.32;;
8831;SDS011;4452;50.756;4.472;2023-08-17T06:43:17;11.02;;;5.88;;
8831;SDS011;4452;50.756;4.472;2023-08-17T06:45:43;7.25;;;5.25;;
8831;SDS011;4452;50.756;4.472;2023-08-17T06:48:09;8.77;;;5.70;;
8831;SDS011;4452;50.756;4.472;2023-08-17T06:50:35;9.68;;;5.50;;
8831;SDS011;4452;50.756;4.472;2023-08-17T06:53:01;8.30;;;5.43;;
8831;SDS011;4452;50.756;4.472;2023-08-17T06:55:27;15.27;;;7.25;;
8831;SDS011;4452;50.756;4.472;2023-08-17T06:57:53;11.38;;;6.78;;
8831;SDS011;4452;50.756;4.472;2023-08-17T07:00:20;12.80;;;8.43;;
8831;SDS011;4452;50.756;4.472;2023-08-17T07:02:49;27.08;;;6.53;;
8831;SDS011;4452;50.756;4.472;2023-08-17T07:05:15;19.92;;;7.05;;
8831;SDS011;4452;50.756;4.472;2023-08-17T07:07:41;18.65;;;7.75;;
8831;SDS011;4452;50.756;4.472;2023-08-17T07:10:08;12.88;;;7.72;;
8831;SDS011;4452;50.756;4.472;2023-08-17T07:12:36;13.18;;;7.13;;
8831;SDS011;4452;50.756;4.472;2023-08-17T07:15:02;9.65;;;6.97;;
8831;SDS011;4452;50.756;4.472;2023-08-17T07:17:29;15.50;;;8.10;;
8831;SDS011;4452;50.756;4.472;2023-08-17T07:19:55;13.27;;;7.50;;
8831;SDS011;4452;50.756;4.472;2023-08-17T07:22:21;14.02;;;7.32;;
8831;SDS011;4452;50.756;4.472;2023-08-17T07:24:47;16.00;;;7.32;;
8831;SDS011;4452;50.756;4.472;2023-08-17T07:27:13;15.15;;;9.50;;
8831;SDS011;4452;50.756;4.472;2023-08-17T07:29:38;17.00;;;7.30;;
8831;SDS011;4452;50.756;4.472;2023-08-17T07:32:04;13.93;;;8.18;;
8831;SDS011;4452;50.756;4.472;2023-08-17T07:34:30;10.65;;;8.15;;
8831;SDS011;4452;50.756;4.472;2023-08-17T07:36:56;21.02;;;8.45;;
8831;SDS011;4452;50.756;4.472;2023-08-17T07:39:22;17.38;;;9.23;;
8831;SDS011;4452;50.756;4.472;2023-08-17T07:41:48;18.58;;;9.73;;
8831;SDS011;4452;50.756;4.472;2023-08-17T07:44:14;18.27;;;10.18;;
8831;SDS011;4452;50.756;4.472;2023-08-17T07:46:40;17.52;;;9.20;;
8831;SDS011;4452;50.756;4.472;2023-08-17T07:49:06;15.38;;;8.90;;
8831;SDS011;4452;50.756;4.472;2023-08-17T07:51:31;20.00;;;9.20;;
8831;SDS011;4452;50.756;4.472;2023-08-17T07:53:59;18.45;;;8.20;;
8831;SDS011;4452;50.756;4.472;2023-08-17T07:56:25;15.38;;;8.68;;
8831;SDS011;4452;50.756;4.472;2023-08-17T07:58:53;15.40;;;8.60;;
8831;SDS011;4452;50.756;4.472;2023-08-17T08:01:19;15.63;;;8.63;;
8831;SDS011;4452;50.756;4.472;2023-08-17T08:03:44;21.10;;;9.40;;
8831;SDS011;4452;50.756;4.472;2023-08-17T08:06:10;14.05;;;9.32;;
8831;SDS011;4452;50.756;4.472;2023-08-17T08:08:36;17.42;;;9.45;;
8831;SDS011;4452;50.756;4.472;2023-08-17T08:11:02;20.85;;;11.45;;
8831;SDS011;4452;50.756;4.472;2023-08-17T08:13:29;17.15;;;9.15;;
8831;SDS011;4452;50.756;4.472;2023-08-17T08:15:55;15.82;;;10.38;;
8831;SDS011;4452;50.756;4.472;2023-08-17T08:18:22;19.15;;;10.45;;
8831;SDS011;4452;50.756;4.472;2023-08-17T08:20:48;18.90;;;10.48;;
8831;SDS011;4452;50.756;4.472;2023-08-17T08:23:14;15.05;;;9.82;;
8831;SDS011;4452;50.756;4.472;2023-08-17T08:25:40;15.77;;;10.07;;
8831;SDS011;4452;50.756;4.472;2023-08-17T08:28:06;21.58;;;9.43;;
8831;SDS011;4452;50.756;4.472;2023-08-17T08:30:33;35.47;;;16.27;;
8831;SDS011;4452;50.756;4.472;2023-08-17T08:32:59;19.83;;;10.38;;
8831;SDS011;4452;50.756;4.472;2023-08-17T08:35:25;20.13;;;9.93;;
8831;SDS011;4452;50.756;4.472;2023-08-17T08:37:52;15.70;;;9.98;;
8831;SDS011;4452;50.756;4.472;2023-08-17T08:40:20;17.05;;;9.57;;
8831;SDS011;4452;50.756;4.472;2023-08-17T08:42:55;21.00;;;10.32;;
8831;SDS011;4452;50.756;4.472;2023-08-17T08:45:24;21.23;;;9.93;;
8831;SDS011;4452;50.756;4.472;2023-08-17T08:47:53;21.13;;;10.25;;
8831;SDS011;4452;50.756;4.472;2023-08-17T08:50:20;21.02;;;9.63;;
8831;SDS011;4452;50.756;4.472;2023-08-17T08:52:53;21.88;;;10.07;;
8831;SDS011;4452;50.756;4.472;2023-08-17T08:55:29;19.35;;;9.80;;
8831;SDS011;4452;50.756;4.472;2023-08-17T08:57:59;21.33;;;10.75;;
8831;SDS011;4452;50.756;4.472;2023-08-17T09:00:25;24.65;;;10.95;;
8831;SDS011;4452;50.756;4.472;2023-08-17T09:02:51;18.00;;;10.02;;
8831;SDS011;4452;50.756;4.472;2023-08-17T09:05:18;23.45;;;10.23;;
8831;SDS011;4452;50.756;4.472;2023-08-17T09:07:44;16.95;;;9.48;;
8831;SDS011;4452;50.756;4.472;2023-08-17T09:10:14;19.38;;;9.82;;
8831;SDS011;4452;50.756;4.472;2023-08-17T09:12:41;17.90;;;10.32;;
8831;SDS011;4452;50.756;4.472;2023-08-17T09:15:08;16.02;;;10.23;;
8831;SDS011;4452;50.756;4.472;2023-08-17T09:17:34;18.17;;;9.63;;
8831;SDS011;4452;50.756;4.472;2023-08-17T09:20:00;12.98;;;9.20;;
8831;SDS011;4452;50.756;4.472;2023-08-17T09:22:40;18.98;;;10.30;;
8831;SDS011;4452;50.756;4.472;2023-08-17T09:25:07;14.57;;;9.68;;
8831;SDS011;4452;50.756;4.472;2023-08-17T09:27:35;17.90;;;9.80;;
8831;SDS011;4452;50.756;4.472;2023-08-17T09:30:09;18.25;;;10.23;;
8831;SDS011;4452;50.756;4.472;2023-08-17T09:32:36;17.20;;;10.98;;
8831;SDS011;4452;50.756;4.472;2023-08-17T09:35:02;17.02;;;10.00;;
8831;SDS011;4452;50.756;4.472;2023-08-17T09:37:29;17.23;;;10.52;;
8831;SDS011;4452;50.756;4.472;2023-08-17T09:39:56;22.48;;;10.57;;
8831;SDS011;4452;50.756;4.472;2023-08-17T09:42:22;23.95;;;12.40;;
8831;SDS011;4452;50.756;4.472;2023-08-17T09:44:51;24.20;;;12.30;;
8831;SDS011;4452;50.756;4.472;2023-08-17T09:47:19;23.20;;;12.40;;
8831;SDS011;4452;50.756;4.472;2023-08-17T09:49:49;23.00;;;11.18;;
8831;SDS011;4452;50.756;4.472;2023-08-17T09:52:19;17.35;;;10.93;;
8831;SDS011;4452;50.756;4.472;2023-08-17T09:54:46;24.15;;;10.75;;
8831;SDS011;4452;50.756;4.472;2023-08-17T09:57:12;28.63;;;10.60;;
8831;SDS011;4452;50.756;4.472;2023-08-17T09:59:39;19.02;;;11.57;;
8831;SDS011;4452;50.756;4.472;2023-08-17T10:02:13;20.45;;;12.05;;
8831;SDS011;4452;50.756;4.472;2023-08-17T10:04:51;20.17;;;11.10;;
8831;SDS011;4452;50.756;4.472;2023-08-17T10:07:18;20.10;;;12.05;;
8831;SDS011;4452;50.756;4.472;2023-08-17T10:09:47;14.90;;;10.30;;
8831;SDS011;4452;50.756;4.472;2023-08-17T10:12:22;17.20;;;10.85;;
8831;SDS011;4452;50.756;4.472;2023-08-17T10:14:55;17.00;;;10.85;;
8831;SDS011;4452;50.756;4.472;2023-08-17T10:17:27;19.35;;;11.25;;
8831;SDS011;4452;50.756;4.472;2023-08-17T10:20:00;20.35;;;10.82;;
8831;SDS011;4452;50.756;4.472;2023-08-17T10:22:36;13.90;;;10.40;;
8831;SDS011;4452;50.756;4.472;2023-08-17T10:25:19;18.55;;;12.90;;
8831;SDS011;4452;50.756;4.472;2023-08-17T10:27:54;21.15;;;13.82;;
8831;SDS011;4452;50.756;4.472;2023-08-17T10:30:23;22.80;;;12.75;;
8831;SDS011;4452;50.756;4.472;2023-08-17T10:32:51;22.02;;;14.02;;
8831;SDS011;4452;50.756;4.472;2023-08-17T10:35:19;24.10;;;13.32;;
8831;SDS011;4452;50.756;4.472;2023-08-17T10:37:45;24.67;;;13.52;;
8831;SDS011;4452;50.756;4.472;2023-08-17T10:40:11;23.75;;;13.63;;
8831;SDS011;4452;50.756;4.472;2023-08-17T10:42:36;22.63;;;12.77;;
8831;SDS011;4452;50.756;4.472;2023-08-17T10:45:48;24.85;;;14.55;;
8831;SDS011;4452;50.756;4.472;2023-08-17T10:48:00;21.90;;;14.05;;
8831;SDS011;4452;50.756;4.472;2023-08-17T10:50:35;27.80;;;13.55;;
8831;SDS011;4452;50.756;4.472;2023-08-17T10:53:08;22.60;;;13.48;;
8831;SDS011;4452;50.756;4.472;2023-08-17T10:55:46;25.38;;;14.02;;
8831;SDS011;4452;50.756;4.472;2023-08-17T10:58:17;24.40;;;14.40;;
8831;SDS011;4452;50.756;4.472;2023-08-17T11:00:43;27.05;;;15.00;;
8831;SDS011;4452;50.756;4.472;2023-08-17T11:03:10;25.33;;;14.43;;
8831;SDS011;4452;50.756;4.472;2023-08-17T11:05:47;22.05;;;14.00;;
8831;SDS011;4452;50.756;4.472;2023-08-17T11:11:04;20.77;;;13.35;;
8831;SDS011;4452;50.756;4.472;2023-08-17T11:13:38;20.70;;;13.65;;
8831;SDS011;4452;50.756;4.472;2023-08-17T11:16:09;23.20;;;13.90;;
8831;SDS011;4452;50.756;4.472;2023-08-17T11:18:36;21.90;;;13.52;;
8831;SDS011;4452;50.756;4.472;2023-08-17T11:21:03;25.45;;;15.05;;
8831;SDS011;4452;50.756;4.472;2023-08-17T11:23:34;21.85;;;13.95;;
8831;SDS011;4452;50.756;4.472;2023-08-17T11:26:04;27.95;;;14.40;;
8831;SDS011;4452;50.756;4.472;2023-08-17T11:28:36;23.65;;;13.82;;
8831;SDS011;4452;50.756;4.472;2023-08-17T11:31:04;24.02;;;15.05;;
8831;SDS011;4452;50.756;4.472;2023-08-17T11:33:35;24.50;;;15.13;;
8831;SDS011;4452;50.756;4.472;2023-08-17T11:36:04;24.20;;;15.32;;
8831;SDS011;4452;50.756;4.472;2023-08-17T11:38:37;25.92;;;15.50;;
8831;SDS011;4452;50.756;4.472;2023-08-17T11:41:07;30.52;;;16.50;;
8831;SDS011;4452;50.756;4.472;2023-08-17T11:43:37;28.58;;;15.85;;
8831;SDS011;4452;50.756;4.472;2023-08-17T11:46:05;30.63;;;15.52;;
8831;SDS011;4452;50.756;4.472;2023-08-17T11:48:33;28.38;;;15.82;;
8831;SDS011;4452;50.756;4.472;2023-08-17T11:50:59;26.20;;;16.20;;
8831;SDS011;4452;50.756;4.472;2023-08-17T11:53:25;27.17;;;15.73;;
8831;SDS011;4452;50.756;4.472;2023-08-17T11:55:58;30.15;;;16.52;;
8831;SDS011;4452;50.756;4.472;2023-08-17T11:58:40;27.23;;;15.68;;
8831;SDS011;4452;50.756;4.472;2023-08-17T12:01:11;29.17;;;16.52;;
8831;SDS011;4452;50.756;4.472;2023-08-17T12:03:37;28.77;;;16.27;;
8831;SDS011;4452;50.756;4.472;2023-08-17T12:06:04;21.70;;;15.20;;
8831;SDS011;4452;50.756;4.472;2023-08-17T12:08:30;23.92;;;15.68;;
8831;SDS011;4452;50.756;4.472;2023-08-17T12:10:55;22.10;;;15.20;;
8831;SDS011;4452;50.756;4.472;2023-08-17T12:13:28;22.58;;;15.88;;
8831;SDS011;4452;50.756;4.472;2023-08-17T12:15:55;23.50;;;15.82;;
8831;SDS011;4452;50.756;4.472;2023-08-17T12:18:22;24.98;;;16.55;;
8831;SDS011;4452;50.756;4.472;2023-08-17T12:20:52;25.73;;;15.48;;
8831;SDS011;4452;50.756;4.472;2023-08-17T12:23:18;23.75;;;14.82;;
8831;SDS011;4452;50.756;4.472;2023-08-17T12:25:44;19.75;;;14.18;;
8831;SDS011;4452;50.756;4.472;2023-08-17T12:28:13;22.23;;;15.13;;
8831;SDS011;4452;50.756;4.472;2023-08-17T12:30:39;20.38;;;14.05;;
8831;SDS011;4452;50.756;4.472;2023-08-17T12:47:08;21.73;;;13.68;;
8831;SDS011;4452;50.756;4.472;2023-08-17T12:49:35;22.13;;;13.80;;
8831;SDS011;4452;50.756;4.472;2023-08-17T12:52:01;18.08;;;13.35;;
8831;SDS011;4452;50.756;4.472;2023-08-17T12:54:27;15.93;;;12.80;;
8831;SDS011;4452;50.756;4.472;2023-08-17T12:56:52;16.92;;;13.27;;
8831;SDS011;4452;50.756;4.472;2023-08-17T12:59:18;20.80;;;13.77;;
8831;SDS011;4452;50.756;4.472;2023-08-17T13:01:44;17.38;;;12.88;;
8831;SDS011;4452;50.756;4.472;2023-08-17T13:04:09;17.02;;;13.05;;
8831;SDS011;4452;50.756;4.472;2023-08-17T13:06:35;19.15;;;13.90;;
8831;SDS011;4452;50.756;4.472;2023-08-17T13:09:01;20.48;;;13.75;;
8831;SDS011;4452;50.756;4.472;2023-08-17T13:11:27;19.77;;;14.82;;
8831;SDS011;4452;50.756;4.472;2023-08-17T13:13:56;24.48;;;14.95;;
8831;SDS011;4452;50.756;4.472;2023-08-17T13:16:30;18.10;;;14.95;;
8831;SDS011;4452;50.756;4.472;2023-08-17T13:18:58;25.08;;;14.13;;
8831;SDS011;4452;50.756;4.472;2023-08-17T13:21:27;21.17;;;15.50;;
8831;SDS011;4452;50.756;4.472;2023-08-17T13:23:55;24.60;;;16.15;;
8831;SDS011;4452;50.756;4.472;2023-08-17T13:26:22;21.60;;;16.10;;
8831;SDS011;4452;50.756;4.472;2023-08-17T13:28:50;29.25;;;16.20;;
8831;SDS011;4452;50.756;4.472;2023-08-17T13:31:18;18.98;;;15.93;;
8831;SDS011;4452;50.756;4.472;2023-08-17T13:33:46;23.77;;;16.13;;
8831;SDS011;4452;50.756;4.472;2023-08-17T13:36:14;24.10;;;16.80;;
8831;SDS011;4452;50.756;4.472;2023-08-17T13:38:42;23.80;;;17.02;;
8831;SDS011;4452;50.756;4.472;2023-08-17T13:41:08;26.65;;;15.88;;
8831;SDS011;4452;50.756;4.472;2023-08-17T13:43:34;24.30;;;16.25;;
8831;SDS011;4452;50.756;4.472;2023-08-17T13:46:02;26.55;;;16.80;;
8831;SDS011;4452;50.756;4.472;2023-08-17T13:48:31;24.13;;;16.13;;
8831;SDS011;4452;50.756;4.472;2023-08-17T13:51:04;25.80;;;16.60;;
8831;SDS011;4452;50.756;4.472;2023-08-17T13:53:29;22.77;;;15.90;;
8831;SDS011;4452;50.756;4.472;2023-08-17T13:55:55;22.13;;;16.35;;
8831;SDS011;4452;50.756;4.472;2023-08-17T13:58:21;24.13;;;16.10;;
8831;SDS011;4452;50.756;4.472;2023-08-17T14:00:47;28.52;;;17.23;;
8831;SDS011;4452;50.756;4.472;2023-08-17T14:03:13;28.52;;;17.10;;
8831;SDS011;4452;50.756;4.472;2023-08-17T14:05:41;21.92;;;16.25;;
8831;SDS011;4452;50.756;4.472;2023-08-17T14:08:12;29.38;;;15.82;;
8831;SDS011;4452;50.756;4.472;2023-08-17T14:10:41;22.85;;;17.08;;
8831;SDS011;4452;50.756;4.472;2023-08-17T14:13:09;31.30;;;18.55;;
8831;SDS011;4452;50.756;4.472;2023-08-17T14:15:36;24.63;;;17.10;;
8831;SDS011;4452;50.756;4.472;2023-08-17T14:18:02;27.63;;;17.77;;
8831;SDS011;4452;50.756;4.472;2023-08-17T14:20:28;22.15;;;16.80;;
8831;SDS011;4452;50.756;4.472;2023-08-17T14:22:54;25.77;;;16.95;;
8831;SDS011;4452;50.756;4.472;2023-08-17T14:25:20;25.35;;;18.38;;
8831;SDS011;4452;50.756;4.472;2023-08-17T14:27:46;28.63;;;19.35;;
8831;SDS011;4452;50.756;4.472;2023-08-17T14:30:12;27.92;;;17.92;;
8831;SDS011;4452;50.756;4.472;2023-08-17T14:32:38;23.08;;;15.93;;
8831;SDS011;4452;50.756;4.472;2023-08-17T14:35:04;30.48;;;18.35;;
8831;SDS011;4452;50.756;4.472;2023-08-17T14:37:29;28.23;;;17.92;;
8831;SDS011;4452;50.756;4.472;2023-08-17T14:39:55;24.23;;;18.40;;
8831;SDS011;4452;50.756;4.472;2023-08-17T14:42:21;31.65;;;19.35;;
8831;SDS011;4452;50.756;4.472;2023-08-17T14:44:48;27.85;;;18.40;;
8831;SDS011;4452;50.756;4.472;2023-08-17T14:47:13;32.08;;;18.05;;
8831;SDS011;4452;50.756;4.472;2023-08-17T14:49:39;22.92;;;18.00;;
8831;SDS011;4452;50.756;4.472;2023-08-17T14:52:05;26.30;;;17.58;;
8831;SDS011;4452;50.756;4.472;2023-08-17T14:54:30;23.95;;;17.30;;
8831;SDS011;4452;50.756;4.472;2023-08-17T14:56:56;30.85;;;17.10;;
8831;SDS011;4452;50.756;4.472;2023-08-17T14:59:22;23.00;;;16.38;;
8831;SDS011;4452;50.756;4.472;2023-08-17T15:01:47;25.77;;;17.85;;
8831;SDS011;4452;50.756;4.472;2023-08-17T15:04:14;25.92;;;17.13;;
8831;SDS011;4452;50.756;4.472;2023-08-17T15:06:40;24.50;;;16.60;;
8831;SDS011;4452;50.756;4.472;2023-08-17T15:09:05;29.35;;;16.95;;
8831;SDS011;4452;50.756;4.472;2023-08-17T15:11:31;28.13;;;16.48;;
8831;SDS011;4452;50.756;4.472;2023-08-17T15:13:57;26.00;;;17.17;;
8831;SDS011;4452;50.756;4.472;2023-08-17T15:16:22;29.42;;;17.15;;
8831;SDS011;4452;50.756;4.472;2023-08-17T15:18:52;22.33;;;16.48;;
8831;SDS011;4452;50.756;4.472;2023-08-17T15:21:19;21.20;;;15.82;;